createdAt,value
2018-10-16T00:01:04.847Z,16.01
2018-10-16T00:04:08.608Z,15.96
2018-10-16T00:07:12.169Z,15.95
2018-10-16T00:10:19.937Z,16.05
2018-10-16T00:13:23.530Z,16.04
2018-10-16T00:16:27.530Z,16.15
2018-10-16T00:19:31.789Z,16.27
2018-10-16T00:22:35.416Z,16.57
2018-10-16T00:25:39.195Z,16.31
2018-10-16T00:28:42.808Z,16.19
2018-10-16T00:31:46.368Z,16.03
2018-10-16T00:34:49.975Z,15.92
2018-10-16T00:37:53.648Z,15.78
2018-10-16T00:40:57.397Z,15.82
2018-10-16T00:44:00.937Z,15.77
2018-10-16T00:47:04.522Z,15.73
2018-10-16T00:50:08.452Z,15.93
2018-10-16T00:53:12.192Z,16.01
2018-10-16T00:56:15.812Z,16.12
2018-10-16T00:59:19.367Z,16.08
2018-10-16T01:02:22.946Z,16.39
2018-10-16T01:05:26.607Z,16.24
2018-10-16T01:08:30.205Z,16.14
2018-10-16T01:11:33.773Z,16.12
2018-10-16T01:14:37.346Z,15.98
2018-10-16T01:17:41.218Z,15.83
2018-10-16T01:20:44.781Z,15.95
2018-10-16T01:23:48.360Z,15.97
2018-10-16T01:26:52.070Z,15.89
2018-10-16T01:29:55.808Z,15.83
2018-10-16T01:32:59.352Z,15.76
2018-10-16T01:36:02.941Z,15.83
2018-10-16T01:39:07.137Z,15.77
2018-10-16T01:42:10.741Z,15.83
2018-10-16T01:45:14.334Z,16.19
2018-10-16T01:48:17.888Z,16.35
2018-10-16T01:51:21.593Z,16.45
2018-10-16T01:54:25.196Z,16.33
2018-10-16T01:57:28.859Z,16.46
2018-10-16T02:00:32.460Z,16.44
2018-10-16T02:03:42.695Z,16.32
2018-10-16T02:06:46.312Z,16.28
2018-10-16T02:09:49.930Z,16.14
2018-10-16T02:12:53.517Z,15.93
2018-10-16T02:15:57.476Z,15.88
2018-10-16T02:19:00.986Z,15.66
2018-10-16T02:22:04.846Z,15.44
2018-10-16T02:25:09.461Z,15.30
2018-10-16T02:28:13.071Z,15.33
2018-10-16T02:31:16.636Z,15.33
2018-10-16T02:34:23.073Z,15.44
2018-10-16T02:37:26.617Z,15.59
2018-10-16T02:40:30.243Z,15.49
2018-10-16T02:43:33.890Z,15.39
2018-10-16T02:46:37.516Z,15.30
2018-10-16T02:49:41.046Z,15.19
2018-10-16T02:52:44.722Z,15.24
2018-10-16T02:55:48.246Z,15.17
2018-10-16T02:58:51.915Z,15.16
2018-10-16T03:01:55.621Z,15.23
2018-10-16T03:04:59.278Z,15.17
2018-10-16T03:08:02.877Z,15.36
2018-10-16T03:11:06.723Z,15.53
2018-10-16T03:14:10.338Z,15.56
2018-10-16T03:17:14.001Z,15.47
2018-10-16T03:20:17.746Z,15.32
2018-10-16T03:23:21.436Z,15.28
2018-10-16T03:26:25.081Z,15.23
2018-10-16T03:29:28.655Z,15.24
2018-10-16T03:32:32.233Z,15.59
2018-10-16T03:35:35.922Z,15.52
2018-10-16T03:38:39.580Z,15.52
2018-10-16T03:41:43.125Z,15.34
2018-10-16T03:44:46.605Z,15.58
2018-10-16T03:47:50.186Z,15.72
2018-10-16T03:50:53.825Z,16.00
2018-10-16T03:53:57.460Z,16.11
2018-10-16T03:57:01.056Z,16.36
2018-10-16T04:00:05.028Z,16.40
2018-10-16T04:03:08.523Z,16.41
2018-10-16T04:06:12.197Z,16.30
2018-10-16T04:09:15.707Z,16.41
2018-10-16T04:12:19.388Z,16.25
2018-10-16T04:15:22.990Z,16.27
2018-10-16T04:18:26.642Z,16.20
2018-10-16T04:21:45.746Z,16.25
2018-10-16T04:24:49.470Z,16.16
2018-10-16T04:27:53.185Z,16.16
2018-10-16T04:30:57.146Z,16.14
2018-10-16T04:34:00.788Z,16.21
2018-10-16T04:37:04.411Z,16.28
2018-10-16T04:40:08.045Z,16.20
2018-10-16T04:43:11.611Z,16.05
2018-10-16T04:46:15.287Z,16.05
2018-10-16T04:49:18.957Z,15.93
2018-10-16T04:52:22.641Z,15.81
2018-10-16T04:55:26.222Z,15.88
2018-10-16T04:58:29.856Z,16.13
2018-10-16T05:01:33.495Z,16.08
2018-10-16T05:04:37.025Z,15.91
2018-10-16T05:07:40.676Z,15.82
2018-10-16T05:10:44.295Z,15.71
2018-10-16T05:13:48.003Z,15.69
2018-10-16T05:16:51.662Z,15.68
2018-10-16T05:19:55.093Z,15.61
2018-10-16T05:22:59.651Z,15.66
2018-10-16T05:26:03.205Z,15.86
2018-10-16T05:29:07.699Z,15.85
2018-10-16T05:32:11.356Z,15.87
2018-10-16T05:35:15.080Z,15.85
2018-10-16T05:38:18.680Z,15.85
2018-10-16T05:41:22.366Z,15.92
2018-10-16T05:44:26.048Z,15.93
2018-10-16T05:47:29.705Z,15.86
2018-10-16T05:50:33.291Z,15.86
2018-10-16T05:53:36.958Z,15.91
2018-10-16T05:56:40.579Z,15.83
2018-10-16T05:59:44.076Z,15.81
2018-10-16T06:02:48.197Z,15.74
2018-10-16T06:05:51.786Z,15.74
2018-10-16T06:08:55.540Z,15.78
2018-10-16T06:11:59.221Z,15.75
2018-10-16T06:15:03.242Z,15.70
2018-10-16T06:18:06.824Z,15.68
2018-10-16T06:21:10.427Z,15.72
2018-10-16T06:24:14.090Z,15.71
2018-10-16T06:27:17.733Z,15.75
2018-10-16T06:30:21.502Z,15.87
2018-10-16T06:33:26.743Z,16.17
2018-10-16T06:36:30.290Z,16.37
2018-10-16T06:39:33.836Z,16.74
2018-10-16T06:42:37.911Z,16.99
2018-10-16T06:45:41.552Z,17.19
2018-10-16T06:48:45.638Z,17.08
2018-10-16T06:51:49.044Z,17.15
2018-10-16T06:54:52.681Z,17.25
2018-10-16T06:57:56.203Z,17.31
2018-10-16T07:00:59.777Z,17.31
2018-10-16T07:04:03.371Z,17.04
2018-10-16T07:07:07.908Z,17.04
2018-10-16T07:10:11.319Z,17.04
2018-10-16T07:13:14.939Z,16.92
2018-10-16T07:16:18.542Z,16.87
2018-10-16T07:19:22.149Z,16.84
2018-10-16T07:22:25.775Z,16.74
2018-10-16T07:25:29.296Z,16.78
2018-10-16T07:28:32.968Z,16.86
2018-10-16T07:31:36.711Z,16.78
2018-10-16T07:34:40.342Z,16.69
2018-10-16T07:37:44.047Z,16.73
2018-10-16T07:40:47.813Z,16.63
2018-10-16T07:43:51.436Z,16.64
2018-10-16T07:46:55.056Z,16.71
2018-10-16T07:49:58.800Z,16.69
2018-10-16T07:53:02.726Z,16.77
2018-10-16T07:56:06.508Z,16.77
2018-10-16T07:59:10.111Z,16.73
2018-10-16T08:02:13.715Z,16.79
2018-10-16T08:05:17.279Z,16.71
2018-10-16T08:08:20.993Z,16.80
2018-10-16T08:11:24.732Z,16.79
2018-10-16T08:14:28.170Z,16.76
2018-10-16T08:17:31.806Z,16.74
2018-10-16T08:20:35.370Z,17.04
2018-10-16T08:23:39.026Z,16.99
2018-10-16T08:26:42.707Z,16.99
2018-10-16T08:29:46.197Z,17.11
2018-10-16T08:32:49.991Z,17.13
2018-10-16T08:35:53.647Z,17.18
2018-10-16T08:39:32.258Z,17.24
2018-10-16T08:43:46.761Z,17.26
2018-10-16T08:47:01.703Z,17.32
2018-10-16T08:50:16.492Z,17.26
2018-10-16T08:53:20.077Z,17.19
2018-10-16T08:56:23.771Z,17.20
2018-10-16T08:59:27.812Z,17.10
2018-10-16T09:02:31.552Z,17.13
2018-10-16T09:05:35.424Z,17.25
2018-10-16T09:08:39.052Z,17.28
2018-10-16T09:11:44.257Z,17.33
2018-10-16T09:14:47.899Z,17.30
2018-10-16T09:17:51.515Z,17.26
2018-10-16T09:20:55.748Z,17.21
2018-10-16T09:23:59.379Z,17.28
2018-10-16T09:27:03.107Z,17.43
2018-10-16T09:30:09.098Z,17.51
2018-10-16T09:33:12.729Z,17.55
2018-10-16T09:36:16.334Z,17.67
2018-10-16T09:39:20.052Z,17.63
2018-10-16T09:42:23.761Z,17.67
2018-10-16T09:45:27.478Z,17.85
2018-10-16T09:48:31.276Z,17.97
2018-10-16T09:51:34.870Z,18.04
2018-10-16T09:54:38.668Z,18.36
2018-10-16T09:57:42.379Z,18.42
2018-10-16T10:00:51.319Z,18.38
2018-10-16T10:03:54.967Z,18.39
2018-10-16T10:06:58.697Z,18.46
2018-10-16T10:10:02.318Z,18.77
2018-10-16T10:13:06.096Z,18.95
2018-10-16T10:16:09.733Z,19.09
2018-10-16T10:19:13.418Z,19.33
2018-10-16T10:22:17.104Z,19.43
2018-10-16T10:25:20.824Z,19.65
2018-10-16T10:28:24.408Z,19.91
2018-10-16T10:31:28.679Z,19.97
2018-10-16T10:34:32.387Z,19.90
2018-10-16T10:37:36.078Z,20.13
2018-10-16T10:40:39.772Z,20.17
2018-10-16T10:43:43.493Z,20.18
2018-10-16T10:46:47.183Z,20.25
2018-10-16T10:49:50.770Z,20.18
2018-10-16T10:52:54.443Z,20.34
2018-10-16T10:55:58.098Z,20.72
2018-10-16T10:59:01.749Z,20.74
2018-10-16T11:02:05.872Z,20.89
2018-10-16T11:05:10.635Z,21.15
2018-10-16T11:08:14.276Z,20.90
2018-10-16T11:11:17.909Z,21.01
2018-10-16T11:14:21.723Z,21.14
2018-10-16T11:17:25.343Z,20.88
2018-10-16T11:20:29.002Z,20.70
2018-10-16T11:23:32.689Z,20.58
2018-10-16T11:26:36.429Z,20.60
2018-10-16T11:29:39.968Z,20.89
2018-10-16T11:32:43.987Z,20.78
2018-10-16T11:35:47.853Z,20.85
2018-10-16T11:38:51.674Z,20.96
2018-10-16T11:41:55.263Z,20.70
2018-10-16T11:44:59.086Z,20.51
2018-10-16T11:48:02.935Z,20.76
2018-10-16T11:51:06.582Z,20.78
2018-10-16T11:54:10.448Z,20.90
2018-10-16T11:57:14.242Z,20.87
2018-10-16T12:00:18.545Z,20.77
2018-10-16T12:03:22.136Z,20.86
2018-10-16T12:06:25.768Z,20.65
2018-10-16T12:09:29.574Z,20.77
2018-10-16T12:12:33.222Z,20.64
2018-10-16T12:15:36.917Z,21.01
2018-10-16T12:19:00.512Z,20.93
2018-10-16T12:22:04.164Z,21.18
2018-10-16T12:25:08.320Z,21.02
2018-10-16T12:28:11.971Z,20.98
2018-10-16T12:31:15.789Z,20.77
2018-10-16T12:34:19.478Z,20.98
2018-10-16T12:37:23.179Z,20.98
2018-10-16T12:40:26.781Z,21.11
2018-10-16T12:43:30.629Z,21.34
2018-10-16T12:46:34.108Z,21.13
2018-10-16T12:49:37.681Z,20.91
2018-10-16T12:52:41.313Z,20.84
2018-10-16T12:55:44.968Z,20.95
2018-10-16T12:58:48.528Z,20.93
2018-10-16T13:01:52.180Z,21.04
2018-10-16T13:04:55.785Z,20.78
2018-10-16T13:07:59.410Z,20.73
2018-10-16T13:11:03.137Z,21.16
2018-10-16T13:14:06.955Z,21.33
2018-10-16T13:17:10.588Z,21.50
2018-10-16T13:20:15.232Z,21.40
2018-10-16T13:23:18.963Z,21.73
2018-10-16T13:26:22.576Z,21.72
2018-10-16T13:29:26.496Z,21.73
2018-10-16T13:32:29.932Z,21.74
2018-10-16T13:35:33.619Z,21.81
2018-10-16T13:38:37.313Z,21.87
2018-10-16T13:41:40.992Z,22.02
2018-10-16T13:44:44.598Z,21.99
2018-10-16T13:47:48.289Z,22.19
2018-10-16T13:50:52.087Z,22.22
2018-10-16T13:53:55.758Z,22.38
2018-10-16T13:56:59.421Z,22.20
2018-10-16T14:00:03.249Z,22.21
2018-10-16T14:03:06.919Z,22.09
2018-10-16T14:06:10.699Z,21.76
2018-10-16T14:09:14.408Z,21.78
2018-10-16T14:12:18.087Z,22.09
2018-10-16T14:15:21.751Z,21.93
2018-10-16T14:18:25.563Z,22.06
2018-10-16T14:21:29.247Z,21.92
2018-10-16T14:24:32.912Z,21.69
2018-10-16T14:27:36.659Z,21.58
2018-10-16T14:30:40.344Z,21.32
2018-10-16T14:33:44.153Z,21.40
2018-10-16T14:36:47.767Z,21.15
2018-10-16T14:39:51.418Z,20.83
2018-10-16T14:42:55.050Z,21.00
2018-10-16T14:45:58.717Z,20.79
2018-10-16T14:49:02.537Z,20.58
2018-10-16T14:52:06.484Z,20.73
2018-10-16T14:55:10.239Z,20.78
2018-10-16T14:58:14.177Z,20.60
2018-10-16T15:01:17.889Z,20.84
2018-10-16T15:04:21.553Z,20.77
2018-10-16T15:07:25.223Z,20.60
2018-10-16T15:10:29.035Z,20.46
2018-10-16T15:13:32.683Z,20.28
2018-10-16T15:16:42.783Z,20.32
2018-10-16T15:19:46.328Z,20.18
2018-10-16T15:22:49.999Z,20.07
2018-10-16T15:25:53.869Z,19.88
2018-10-16T15:28:57.579Z,19.91
2018-10-16T15:32:01.379Z,19.87
2018-10-16T15:35:05.922Z,19.77
2018-10-16T15:38:09.562Z,19.79
2018-10-16T15:41:13.346Z,19.69
2018-10-16T15:44:17.063Z,19.70
2018-10-16T15:47:21.608Z,19.61
2018-10-16T15:50:25.264Z,19.44
2018-10-16T15:53:28.859Z,19.35
2018-10-16T15:56:32.779Z,19.28
2018-10-16T15:59:36.704Z,19.26
2018-10-16T16:02:40.365Z,19.25
2018-10-16T16:05:44.054Z,19.16
2018-10-16T16:08:47.834Z,19.28
2018-10-16T16:11:51.586Z,19.11
2018-10-16T16:14:55.468Z,18.94
2018-10-16T16:17:59.352Z,18.93
2018-10-16T16:21:03.065Z,18.74
2018-10-16T16:24:06.881Z,18.70
2018-10-16T16:27:10.446Z,18.64
2018-10-16T16:30:15.576Z,18.59
2018-10-16T16:33:19.229Z,18.50
2018-10-16T16:36:22.878Z,18.43
2018-10-16T16:39:26.575Z,18.40
2018-10-16T16:42:30.263Z,18.33
2018-10-16T16:45:33.881Z,18.28
2018-10-16T16:48:37.599Z,18.24
2018-10-16T16:51:41.244Z,18.22
2018-10-16T16:54:44.951Z,18.10
2018-10-16T16:57:48.705Z,18.04
2018-10-16T17:00:52.376Z,18.13
2018-10-16T17:03:55.988Z,18.06
2018-10-16T17:06:59.698Z,18.09
2018-10-16T17:10:03.851Z,17.98
2018-10-16T17:13:07.612Z,17.90
2018-10-16T17:16:11.378Z,17.83
2018-10-16T17:19:15.024Z,17.84
2018-10-16T17:22:19.061Z,17.87
2018-10-16T17:25:23.039Z,17.80
2018-10-16T17:28:26.534Z,17.78
2018-10-16T17:31:30.306Z,17.76
2018-10-16T17:34:34.086Z,17.75
2018-10-16T17:37:37.940Z,17.79
2018-10-16T17:40:41.631Z,17.79
2018-10-16T17:43:45.345Z,17.77
2018-10-16T17:46:49.189Z,17.78
2018-10-16T17:49:52.977Z,17.81
2018-10-16T17:52:56.792Z,17.89
2018-10-16T17:56:00.644Z,17.87
2018-10-16T17:59:04.364Z,17.89
2018-10-16T18:02:08.140Z,17.90
2018-10-16T18:05:12.269Z,17.87
2018-10-16T18:08:15.953Z,17.85
2018-10-16T18:11:19.629Z,18.00
2018-10-16T18:14:23.256Z,18.10
2018-10-16T18:17:26.888Z,18.08
2018-10-16T18:20:30.643Z,17.93
2018-10-16T18:23:40.939Z,17.89
2018-10-16T18:26:45.399Z,17.92
2018-10-16T18:29:49.274Z,17.85
2018-10-16T18:32:52.949Z,17.73
2018-10-16T18:35:56.572Z,17.65
2018-10-16T18:39:00.214Z,17.52
2018-10-16T18:42:04.032Z,17.47
2018-10-16T18:45:08.746Z,17.37
2018-10-16T18:48:12.732Z,17.35
2018-10-16T18:51:16.793Z,17.31
2018-10-16T18:54:20.397Z,17.22
2018-10-16T18:57:24.026Z,17.20
2018-10-16T19:00:27.781Z,17.14
2018-10-16T19:03:31.608Z,17.15
2018-10-16T19:06:35.258Z,17.25
2018-10-16T19:09:39.122Z,17.35
2018-10-16T19:12:42.962Z,17.28
2018-10-16T19:15:46.635Z,17.22
2018-10-16T19:18:50.412Z,17.14
2018-10-16T19:21:54.099Z,17.06
2018-10-16T19:24:57.852Z,17.02
2018-10-16T19:28:01.686Z,17.09
2018-10-16T19:31:05.366Z,17.04
2018-10-16T19:34:09.075Z,17.11
2018-10-16T19:37:12.742Z,17.10
2018-10-16T19:40:16.975Z,17.04
2018-10-16T19:43:20.704Z,16.98
2018-10-16T19:46:24.504Z,16.93
2018-10-16T19:49:28.370Z,16.88
2018-10-16T19:52:32.123Z,16.91
2018-10-16T19:55:35.921Z,16.93
2018-10-16T19:58:39.629Z,16.96
2018-10-16T20:01:43.362Z,16.94
2018-10-16T20:04:47.105Z,16.81
2018-10-16T20:07:50.820Z,16.80
2018-10-16T20:10:54.560Z,16.81
2018-10-16T20:13:58.275Z,16.80
2018-10-16T20:17:02.008Z,16.87
2018-10-16T20:20:06.315Z,16.88
2018-10-16T20:23:10.092Z,16.84
2018-10-16T20:26:13.766Z,16.80
2018-10-16T20:29:17.366Z,16.74
2018-10-16T20:32:21.026Z,16.59
2018-10-16T20:35:24.745Z,16.64
2018-10-16T20:38:28.614Z,16.55
2018-10-16T20:41:32.441Z,16.41
2018-10-16T20:44:36.210Z,16.25
2018-10-16T20:47:39.998Z,16.07
2018-10-16T20:50:44.160Z,16.00
2018-10-16T20:53:47.948Z,15.96
2018-10-16T20:56:51.703Z,15.91
2018-10-16T20:59:56.030Z,15.86
2018-10-16T21:02:59.765Z,15.84
2018-10-16T21:06:03.651Z,15.83
2018-10-16T21:09:07.531Z,16.08
2018-10-16T21:12:11.164Z,16.01
2018-10-16T21:15:14.961Z,16.02
2018-10-16T21:18:18.564Z,16.10
2018-10-16T21:21:22.214Z,16.02
2018-10-16T21:24:25.854Z,16.08
2018-10-16T21:27:29.508Z,16.12
2018-10-16T21:30:33.299Z,16.18
2018-10-16T21:33:36.845Z,16.25
2018-10-16T21:36:40.503Z,16.35
2018-10-16T21:39:44.094Z,16.34
2018-10-16T21:42:47.735Z,16.44
2018-10-16T21:45:51.509Z,16.39
2018-10-16T21:48:55.113Z,16.37
2018-10-16T21:51:58.862Z,16.34
2018-10-16T21:55:02.589Z,16.20
2018-10-16T21:58:06.395Z,16.28
2018-10-16T22:01:11.293Z,16.18
2018-10-16T22:04:14.696Z,16.07
2018-10-16T22:07:18.288Z,16.12
2018-10-16T22:10:22.515Z,16.08
2018-10-16T22:13:26.109Z,16.10
2018-10-16T22:16:29.784Z,16.07
2018-10-16T22:19:33.481Z,16.08
2018-10-16T22:22:37.174Z,15.91
2018-10-16T22:25:40.734Z,15.82
2018-10-16T22:28:44.505Z,15.66
2018-10-16T22:31:48.159Z,15.46
2018-10-16T22:34:51.785Z,15.30
2018-10-16T22:37:55.391Z,15.47
2018-10-16T22:40:59.167Z,15.36
2018-10-16T22:44:02.829Z,15.42
2018-10-16T22:47:06.576Z,15.24
2018-10-16T22:50:11.849Z,15.18
2018-10-16T22:53:15.614Z,15.11
2018-10-16T22:56:19.207Z,15.18
2018-10-16T22:59:22.913Z,15.30
2018-10-16T23:02:26.544Z,15.30
2018-10-16T23:05:30.103Z,15.01
2018-10-16T23:08:33.693Z,15.08
2018-10-16T23:11:37.440Z,15.00
2018-10-16T23:14:41.009Z,14.87
2018-10-16T23:17:44.583Z,14.79
2018-10-16T23:20:48.058Z,14.72
2018-10-16T23:23:51.664Z,14.80
2018-10-16T23:26:55.247Z,14.77
2018-10-16T23:29:58.750Z,14.78
2018-10-16T23:33:02.345Z,14.81
2018-10-16T23:36:06.034Z,14.84
2018-10-16T23:39:11.874Z,14.70
2018-10-16T23:42:15.536Z,14.70
2018-10-16T23:45:19.135Z,14.82
2018-10-16T23:48:22.839Z,14.71
2018-10-16T23:51:26.504Z,14.59
2018-10-16T23:54:30.213Z,14.58
2018-10-16T23:57:33.769Z,14.57
